Terminal Aerodrome Forecast
Issued by NWS

Home | Current Version | Previous Version | Text Only | Print | Product List | Glossary On
Versions: 1 2 3 4 5 6 7 8 9 10 11 12 13 14 15 16 17 18 19 20 21 22 23 24
000
FTUS46 KSEW 012300
TAFHQM
TAF
KHQM 012320Z 0200/0224 24012KT P6SM SCT050 BKN180
     FM020300 25005KT P6SM BKN120
     FM020800 VRB03KT P6SM BKN100
     FM021800 10007KT P6SM BKN120=

USA.gov is the U.S. government's official web portal to all federal, state and local government web resources and services.